Time,TemperatureF,DewpointF,PressureIn,WindDirection,WindDirectionDegrees,WindSpeedMPH,WindSpeedGustMPH,Humidity,HourlyPrecipIn,Conditions,Clouds,dailyrainin,SoftwareType,DateUTC
2013-07-14 00:02:00,67.0,56.0,-100.00,SE,140,8.0,10.0,69,0.00,,,0.00,,2013-07-14 05:02:00,
2013-07-14 00:11:00,67.0,56.0,-100.00,SE,140,8.0,10.0,69,0.00,,,0.00,,2013-07-14 05:11:00,
2013-07-14 00:23:00,67.0,56.0,-100.00,SE,140,8.0,10.0,69,0.00,,,0.00,,2013-07-14 05:23:00,
2013-07-14 00:53:00,67.0,57.0,-100.00,SE,135,8.0,11.0,71,0.00,,,0.00,,2013-07-14 05:53:00,
2013-07-14 01:01:00,67.0,57.0,-100.00,SE,135,8.0,11.0,71,0.00,,,0.00,,2013-07-14 06:01:00,
2013-07-14 01:11:00,67.0,57.0,-100.00,SE,135,8.0,11.0,71,0.00,,,0.00,,2013-07-14 06:11:00,
2013-07-14 01:22:00,67.0,57.0,-100.00,SE,135,8.0,11.0,71,0.00,,,0.00,,2013-07-14 06:22:00,
2013-07-14 01:53:00,67.0,58.0,-100.00,SE,130,8.0,13.0,72,0.00,,,0.00,,2013-07-14 06:53:00,
2013-07-14 02:02:00,67.0,58.0,-100.00,SE,130,8.0,13.0,72,0.00,,,0.00,,2013-07-14 07:02:00,
2013-07-14 02:12:00,67.0,58.0,-100.00,SE,130,8.0,13.0,72,0.00,,,0.00,,2013-07-14 07:12:00,
2013-07-14 02:22:00,67.0,58.0,-100.00,SE,130,8.0,13.0,72,0.00,,,0.00,,2013-07-14 07:22:00,
2013-07-14 02:53:00,67.0,59.0,-100.00,SE,133,8.0,13.0,75,0.00,,,0.00,,2013-07-14 07:53:00,
2013-07-14 03:01:00,67.0,59.0,-100.00,SE,133,8.0,13.0,75,0.00,,,0.00,,2013-07-14 08:01:00,
2013-07-14 03:11:00,67.0,59.0,-100.00,SE,133,8.0,13.0,75,0.00,,,0.00,,2013-07-14 08:11:00,
2013-07-14 03:22:00,67.0,59.0,-100.00,SE,133,8.0,13.0,75,0.00,,,0.00,,2013-07-14 08:22:00,
2013-07-14 03:53:00,66.0,59.0,-100.00,SSE,154,3.0,10.0,78,0.00,,,0.00,,2013-07-14 08:53:00,
2013-07-14 04:01:00,66.0,59.0,-100.00,SSE,154,3.0,10.0,78,0.00,,,0.00,,2013-07-14 09:01:00,
2013-07-14 04:11:00,66.0,59.0,-100.00,SSE,154,3.0,10.0,78,0.00,,,0.00,,2013-07-14 09:11:00,
2013-07-14 04:22:00,66.0,59.0,-100.00,SSE,154,3.0,10.0,78,0.00,,,0.00,,2013-07-14 09:22:00,
2013-07-14 04:53:00,65.0,58.0,-100.00,SE,134,4.0,8.0,79,0.00,,,0.00,,2013-07-14 09:53:00,
2013-07-14 05:01:00,65.0,58.0,-100.00,SE,134,4.0,8.0,79,0.00,,,0.00,,2013-07-14 10:01:00,
2013-07-14 05:11:00,65.0,58.0,-100.00,SE,134,4.0,8.0,79,0.00,,,0.00,,2013-07-14 10:11:00,
2013-07-14 05:22:00,65.0,58.0,-100.00,SE,134,4.0,8.0,79,0.00,,,0.00,,2013-07-14 10:22:00,
2013-07-14 05:53:00,66.0,59.0,-100.00,ESE,114,4.0,7.0,78,0.00,,,-99.99,,2013-07-14 10:53:00,
2013-07-14 06:02:00,66.0,59.0,-100.00,ESE,114,4.0,7.0,78,0.00,,,-99.99,,2013-07-14 11:02:00,
2013-07-14 06:11:00,66.0,59.0,-100.00,ESE,114,4.0,7.0,78,0.00,,,-99.99,,2013-07-14 11:11:00,
2013-07-14 06:22:00,66.0,59.0,-100.00,ESE,114,4.0,7.0,78,0.00,,,-99.99,,2013-07-14 11:22:00,
2013-07-14 06:53:00,68.0,61.0,-100.00,SE,124,4.0,7.0,78,0.00,,,0.00,,2013-07-14 11:53:00,
2013-07-14 07:02:00,68.0,61.0,-100.00,SE,124,4.0,7.0,78,0.00,,,0.00,,2013-07-14 12:02:00,
2013-07-14 07:11:00,68.0,61.0,-100.00,SE,124,4.0,7.0,78,0.00,,,0.00,,2013-07-14 12:11:00,
2013-07-14 07:22:00,68.0,61.0,-100.00,SE,124,4.0,7.0,78,0.00,,,0.00,,2013-07-14 12:22:00,
2013-07-14 07:53:00,72.0,64.0,-100.00,SE,133,7.0,10.0,75,0.00,,,0.00,,2013-07-14 12:53:00,
2013-07-14 08:01:00,72.0,64.0,-100.00,SE,133,7.0,10.0,75,0.00,,,0.00,,2013-07-14 13:01:00,
2013-07-14 08:11:00,72.0,64.0,-100.00,SE,133,7.0,10.0,75,0.00,,,0.00,,2013-07-14 13:11:00,
2013-07-14 08:22:00,72.0,64.0,-100.00,SE,133,7.0,10.0,75,0.00,,,0.00,,2013-07-14 13:22:00,
2013-07-14 08:53:00,77.0,67.0,-100.00,SSE,149,6.0,11.0,72,0.00,,,0.00,,2013-07-14 13:53:00,
2013-07-14 09:02:00,77.0,67.0,-100.00,SSE,149,6.0,11.0,72,0.00,,,0.00,,2013-07-14 14:02:00,
2013-07-14 09:11:00,77.0,67.0,-100.00,SSE,149,6.0,11.0,72,0.00,,,0.00,,2013-07-14 14:11:00,
2013-07-14 09:23:00,77.0,67.0,-100.00,SSE,149,6.0,11.0,72,0.00,,,0.00,,2013-07-14 14:23:00,
2013-07-14 09:53:00,80.0,69.0,-100.00,SSE,166,8.0,12.0,69,0.00,,,0.00,,2013-07-14 14:53:00,
2013-07-14 10:01:00,80.0,69.0,-100.00,SSE,166,8.0,12.0,69,0.00,,,0.00,,2013-07-14 15:01:00,
2013-07-14 10:12:00,80.0,69.0,-100.00,SSE,166,8.0,12.0,69,0.00,,,0.00,,2013-07-14 15:12:00,
2013-07-14 10:22:00,80.0,69.0,-100.00,SSE,166,8.0,12.0,69,0.00,,,0.00,,2013-07-14 15:22:00,
2013-07-14 10:53:00,82.0,68.0,-100.00,SSE,157,8.0,13.0,62,0.00,,,0.00,,2013-07-14 15:53:00,
2013-07-14 11:01:00,82.0,68.0,-100.00,SSE,157,8.0,13.0,62,0.00,,,0.00,,2013-07-14 16:01:00,
2013-07-14 11:11:00,82.0,68.0,-100.00,SSE,157,8.0,13.0,62,0.00,,,0.00,,2013-07-14 16:11:00,
2013-07-14 11:22:00,82.0,68.0,-100.00,SSE,157,8.0,13.0,62,0.00,,,0.00,,2013-07-14 16:22:00,
2013-07-14 11:53:00,84.0,67.0,-100.00,South,190,8.0,13.0,56,0.00,,,0.00,,2013-07-14 16:53:00,
2013-07-14 12:02:00,84.0,67.0,-100.00,South,190,8.0,13.0,56,0.00,,,0.00,,2013-07-14 17:02:00,
2013-07-14 12:11:00,84.0,67.0,-100.00,South,190,8.0,13.0,56,0.00,,,0.00,,2013-07-14 17:11:00,
2013-07-14 12:22:00,84.0,67.0,-100.00,South,190,8.0,13.0,56,0.00,,,0.00,,2013-07-14 17:22:00,
2013-07-14 12:53:00,86.0,67.0,-100.00,SSW,204,6.0,11.0,54,0.00,,,0.00,,2013-07-14 17:53:00,
2013-07-14 13:01:00,86.0,67.0,-100.00,SSW,204,6.0,11.0,54,0.00,,,0.00,,2013-07-14 18:01:00,
2013-07-14 13:11:00,86.0,67.0,-100.00,SSW,204,6.0,11.0,54,0.00,,,0.00,,2013-07-14 18:11:00,
2013-07-14 13:22:00,86.0,67.0,-100.00,SSW,204,6.0,11.0,54,0.00,,,0.00,,2013-07-14 18:22:00,
2013-07-14 13:52:00,87.0,65.0,-100.00,SSW,196,6.0,12.0,49,0.00,,,0.00,,2013-07-14 18:52:00,
2013-07-14 14:01:00,87.0,65.0,-100.00,SSW,196,6.0,12.0,49,0.00,,,0.00,,2013-07-14 19:01:00,
2013-07-14 14:11:00,87.0,65.0,-100.00,SSW,196,6.0,12.0,49,0.00,,,0.00,,2013-07-14 19:11:00,
2013-07-14 14:22:00,87.0,65.0,-100.00,SSW,196,6.0,12.0,49,0.00,,,0.00,,2013-07-14 19:22:00,
2013-07-14 14:53:00,87.0,67.0,-100.00,SSW,212,6.0,10.0,51,0.00,,,0.00,,2013-07-14 19:53:00,
2013-07-14 15:02:00,87.0,67.0,-100.00,SSW,212,6.0,10.0,51,0.00,,,0.00,,2013-07-14 20:02:00,
2013-07-14 15:11:00,87.0,67.0,-100.00,SSW,212,6.0,10.0,51,0.00,,,0.00,,2013-07-14 20:11:00,
2013-07-14 15:22:00,87.0,67.0,-100.00,SSW,212,6.0,10.0,51,0.00,,,0.00,,2013-07-14 20:22:00,
2013-07-14 15:53:00,88.0,66.0,-100.00,SSW,194,6.0,11.0,49,0.00,,,0.00,,2013-07-14 20:53:00,
2013-07-14 16:02:00,88.0,66.0,-100.00,SSW,194,6.0,11.0,49,0.00,,,0.00,,2013-07-14 21:02:00,
2013-07-14 16:11:00,88.0,66.0,-100.00,SSW,194,6.0,11.0,49,0.00,,,0.00,,2013-07-14 21:11:00,
2013-07-14 16:22:00,88.0,66.0,-100.00,SSW,194,6.0,11.0,49,0.00,,,0.00,,2013-07-14 21:22:00,
2013-07-14 16:53:00,86.0,67.0,-100.00,SSE,152,8.0,12.0,53,0.00,,,0.00,,2013-07-14 21:53:00,
2013-07-14 17:01:00,86.0,67.0,-100.00,SSE,152,8.0,12.0,53,0.00,,,0.00,,2013-07-14 22:01:00,
2013-07-14 17:11:00,86.0,67.0,-100.00,SSE,152,8.0,12.0,53,0.00,,,0.00,,2013-07-14 22:11:00,
2013-07-14 17:22:00,86.0,67.0,-100.00,SSE,152,8.0,12.0,53,0.00,,,0.00,,2013-07-14 22:22:00,
2013-07-14 17:53:00,86.0,67.0,-100.00,SSE,158,8.0,13.0,53,0.00,,,-99.99,,2013-07-14 22:53:00,
2013-07-14 18:01:00,86.0,67.0,-100.00,SSE,158,8.0,13.0,53,0.00,,,-99.99,,2013-07-14 23:01:00,
2013-07-14 18:11:00,86.0,67.0,-100.00,SSE,158,8.0,13.0,53,0.00,,,-99.99,,2013-07-14 23:11:00,
2013-07-14 18:22:00,86.0,67.0,-100.00,SSE,158,8.0,13.0,53,0.00,,,-99.99,,2013-07-14 23:22:00,
2013-07-14 18:53:00,84.0,67.0,-100.00,SE,131,8.0,12.0,56,0.00,,,0.00,,2013-07-14 23:53:00,
2013-07-14 19:02:00,84.0,67.0,-100.00,SE,131,8.0,12.0,56,0.00,,,0.00,,2013-07-15 00:02:00,
2013-07-14 19:11:00,84.0,67.0,-100.00,SE,131,8.0,12.0,56,0.00,,,0.00,,2013-07-15 00:11:00,
2013-07-14 19:22:00,84.0,67.0,-100.00,SE,131,8.0,12.0,56,0.00,,,0.00,,2013-07-15 00:22:00,
2013-07-14 19:53:00,81.0,66.0,-100.00,SE,133,6.0,12.0,60,0.00,,,0.00,,2013-07-15 00:53:00,
2013-07-14 20:01:00,81.0,66.0,-100.00,SE,133,6.0,12.0,60,0.00,,,0.00,,2013-07-15 01:01:00,
2013-07-14 20:11:00,81.0,66.0,-100.00,SE,133,6.0,12.0,60,0.00,,,0.00,,2013-07-15 01:11:00,
2013-07-14 20:22:00,81.0,66.0,-100.00,SE,133,6.0,12.0,60,0.00,,,0.00,,2013-07-15 01:22:00,
2013-07-14 20:53:00,77.0,63.0,-100.00,SE,127,5.0,9.0,63,0.00,,,0.00,,2013-07-15 01:53:00,
2013-07-14 21:02:00,77.0,63.0,-100.00,SE,127,5.0,9.0,63,0.00,,,0.00,,2013-07-15 02:02:00,
2013-07-14 21:11:00,77.0,63.0,-100.00,SE,127,5.0,9.0,63,0.00,,,0.00,,2013-07-15 02:11:00,
2013-07-14 21:22:00,77.0,63.0,-100.00,SE,127,5.0,9.0,63,0.00,,,0.00,,2013-07-15 02:22:00,
2013-07-14 21:53:00,76.0,62.0,-100.00,ESE,118,5.0,10.0,62,0.00,,,0.00,,2013-07-15 02:53:00,
2013-07-14 22:02:00,76.0,62.0,-100.00,ESE,118,5.0,10.0,62,0.00,,,0.00,,2013-07-15 03:02:00,
2013-07-14 22:11:00,76.0,62.0,-100.00,ESE,118,5.0,10.0,62,0.00,,,0.00,,2013-07-15 03:11:00,
2013-07-14 22:22:00,76.0,62.0,-100.00,ESE,118,5.0,10.0,62,0.00,,,0.00,,2013-07-15 03:22:00,
2013-07-14 22:53:00,73.0,65.0,-100.00,SE,130,5.0,7.0,76,0.00,,,0.00,,2013-07-15 03:53:00,
2013-07-14 23:01:00,73.0,65.0,-100.00,SE,130,5.0,7.0,76,0.00,,,0.00,,2013-07-15 04:01:00,
2013-07-14 23:11:00,73.0,65.0,-100.00,SE,130,5.0,7.0,76,0.00,,,0.00,,2013-07-15 04:11:00,
2013-07-14 23:22:00,73.0,65.0,-100.00,SE,130,5.0,7.0,76,0.00,,,0.00,,2013-07-15 04:22:00,
2013-07-14 23:54:00,73.0,65.0,-100.00,ESE,119,4.0,8.0,76,0.00,,,0.00,,2013-07-15 04:54:00,